sensor_id;sensor_type;location;lat;lon;timestamp;P1;durP1;ratioP1;P2;durP2;ratioP2
70457;SDS011;57919;56.194;95.716;2024-01-15T00:01:58;6.97;;;2.42;;
70457;SDS011;57919;56.194;95.716;2024-01-15T00:12:00;5.63;;;1.73;;
70457;SDS011;57919;56.194;95.716;2024-01-15T00:22:03;3.53;;;0.90;;
70457;SDS011;57919;56.194;95.716;2024-01-15T00:32:05;4.63;;;1.40;;
70457;SDS011;57919;56.194;95.716;2024-01-15T00:42:07;4.07;;;1.30;;
70457;SDS011;57919;56.194;95.716;2024-01-15T00:52:09;6.07;;;1.70;;
70457;SDS011;57919;56.194;95.716;2024-01-15T01:02:10;10.50;;;3.17;;
70457;SDS011;57919;56.194;95.716;2024-01-15T01:12:13;8.73;;;1.57;;
70457;SDS011;57919;56.194;95.716;2024-01-15T01:22:15;6.73;;;1.87;;
70457;SDS011;57919;56.194;95.716;2024-01-15T01:32:17;11.50;;;2.80;;
70457;SDS011;57919;56.194;95.716;2024-01-15T01:42:19;10.13;;;3.15;;
70457;SDS011;57919;56.194;95.716;2024-01-15T01:52:21;14.93;;;4.90;;
70457;SDS011;57919;56.194;95.716;2024-01-15T02:02:23;11.73;;;3.70;;
70457;SDS011;57919;56.194;95.716;2024-01-15T02:12:26;13.88;;;5.63;;
70457;SDS011;57919;56.194;95.716;2024-01-15T02:22:28;5.87;;;1.73;;
70457;SDS011;57919;56.194;95.716;2024-01-15T02:32:30;11.07;;;2.00;;
70457;SDS011;57919;56.194;95.716;2024-01-15T02:42:33;6.97;;;2.33;;
70457;SDS011;57919;56.194;95.716;2024-01-15T02:52:35;3.42;;;0.70;;
70457;SDS011;57919;56.194;95.716;2024-01-15T03:02:37;4.67;;;1.40;;
70457;SDS011;57919;56.194;95.716;2024-01-15T03:12:44;6.13;;;1.30;;
70457;SDS011;57919;56.194;95.716;2024-01-15T03:22:46;5.45;;;1.20;;
70457;SDS011;57919;56.194;95.716;2024-01-15T03:32:48;13.80;;;3.87;;
70457;SDS011;57919;56.194;95.716;2024-01-15T03:42:51;5.27;;;2.17;;
70457;SDS011;57919;56.194;95.716;2024-01-15T03:52:53;2.50;;;1.02;;
70457;SDS011;57919;56.194;95.716;2024-01-15T04:02:54;2.30;;;0.97;;
70457;SDS011;57919;56.194;95.716;2024-01-15T04:12:56;4.10;;;1.37;;
70457;SDS011;57919;56.194;95.716;2024-01-15T04:23:00;3.05;;;1.02;;
70457;SDS011;57919;56.194;95.716;2024-01-15T04:33:02;5.10;;;2.20;;
70457;SDS011;57919;56.194;95.716;2024-01-15T04:43:05;4.30;;;1.43;;
70457;SDS011;57919;56.194;95.716;2024-01-15T04:53:06;3.50;;;1.20;;
70457;SDS011;57919;56.194;95.716;2024-01-15T05:03:08;9.88;;;5.05;;
70457;SDS011;57919;56.194;95.716;2024-01-15T05:13:10;3.47;;;1.40;;
70457;SDS011;57919;56.194;95.716;2024-01-15T05:23:12;5.27;;;1.60;;
70457;SDS011;57919;56.194;95.716;2024-01-15T05:33:14;12.07;;;2.33;;
70457;SDS011;57919;56.194;95.716;2024-01-15T05:43:15;3.20;;;1.10;;
70457;SDS011;57919;56.194;95.716;2024-01-15T05:53:19;4.07;;;1.53;;
70457;SDS011;57919;56.194;95.716;2024-01-15T06:03:21;7.25;;;2.20;;
70457;SDS011;57919;56.194;95.716;2024-01-15T06:13:23;8.85;;;2.70;;
70457;SDS011;57919;56.194;95.716;2024-01-15T06:23:24;12.93;;;4.13;;
70457;SDS011;57919;56.194;95.716;2024-01-15T06:33:26;5.23;;;1.87;;
70457;SDS011;57919;56.194;95.716;2024-01-15T06:43:28;11.05;;;4.40;;
70457;SDS011;57919;56.194;95.716;2024-01-15T06:53:30;14.77;;;6.63;;
70457;SDS011;57919;56.194;95.716;2024-01-15T07:03:31;4.97;;;2.30;;
70457;SDS011;57919;56.194;95.716;2024-01-15T07:13:33;7.07;;;4.70;;
70457;SDS011;57919;56.194;95.716;2024-01-15T07:23:37;14.53;;;6.40;;
70457;SDS011;57919;56.194;95.716;2024-01-15T07:33:38;25.23;;;6.37;;
70457;SDS011;57919;56.194;95.716;2024-01-15T07:43:41;42.92;;;16.83;;
70457;SDS011;57919;56.194;95.716;2024-01-15T07:53:42;6.10;;;3.10;;
70457;SDS011;57919;56.194;95.716;2024-01-15T08:03:44;6.90;;;3.40;;
70457;SDS011;57919;56.194;95.716;2024-01-15T08:13:46;2.23;;;0.83;;
70457;SDS011;57919;56.194;95.716;2024-01-15T08:23:48;3.92;;;2.00;;
70457;SDS011;57919;56.194;95.716;2024-01-15T08:33:50;12.53;;;5.10;;
70457;SDS011;57919;56.194;95.716;2024-01-15T08:43:52;5.57;;;2.00;;
70457;SDS011;57919;56.194;95.716;2024-01-15T08:53:55;9.98;;;5.40;;
70457;SDS011;57919;56.194;95.716;2024-01-15T10:04:06;40.60;;;21.17;;
70457;SDS011;57919;56.194;95.716;2024-01-15T10:14:11;10.50;;;3.57;;
70457;SDS011;57919;56.194;95.716;2024-01-15T10:24:13;5.70;;;2.75;;
70457;SDS011;57919;56.194;95.716;2024-01-15T10:34:15;2.33;;;1.47;;
70457;SDS011;57919;56.194;95.716;2024-01-15T10:44:19;0.87;;;0.30;;
70457;SDS011;57919;56.194;95.716;2024-01-15T10:54:20;2.53;;;1.20;;
70457;SDS011;57919;56.194;95.716;2024-01-15T11:04:24;16.97;;;5.93;;
70457;SDS011;57919;56.194;95.716;2024-01-15T11:14:48;4.10;;;1.07;;
70457;SDS011;57919;56.194;95.716;2024-01-15T11:24:51;9.95;;;4.20;;
70457;SDS011;57919;56.194;95.716;2024-01-15T11:44:58;3.80;;;2.60;;
70457;SDS011;57919;56.194;95.716;2024-01-15T11:55:11;16.70;;;3.97;;
70457;SDS011;57919;56.194;95.716;2024-01-15T12:05:20;7.28;;;3.35;;
70457;SDS011;57919;56.194;95.716;2024-01-15T12:15:22;5.63;;;2.53;;
70457;SDS011;57919;56.194;95.716;2024-01-15T12:25:25;5.27;;;1.10;;
70457;SDS011;57919;56.194;95.716;2024-01-15T12:35:29;2.60;;;1.90;;
70457;SDS011;57919;56.194;95.716;2024-01-15T12:45:31;5.30;;;2.23;;
70457;SDS011;57919;56.194;95.716;2024-01-15T12:55:33;10.77;;;5.33;;
70457;SDS011;57919;56.194;95.716;2024-01-15T13:05:36;6.05;;;2.13;;
70457;SDS011;57919;56.194;95.716;2024-01-15T13:15:38;5.55;;;2.42;;
70457;SDS011;57919;56.194;95.716;2024-01-15T13:25:40;5.80;;;1.80;;
70457;SDS011;57919;56.194;95.716;2024-01-15T13:35:42;6.20;;;1.57;;
70457;SDS011;57919;56.194;95.716;2024-01-15T13:45:44;12.70;;;3.80;;
70457;SDS011;57919;56.194;95.716;2024-01-15T13:55:47;10.03;;;2.67;;
70457;SDS011;57919;56.194;95.716;2024-01-15T14:05:49;4.17;;;1.87;;
70457;SDS011;57919;56.194;95.716;2024-01-15T14:15:52;4.55;;;2.30;;
70457;SDS011;57919;56.194;95.716;2024-01-15T14:25:54;3.90;;;1.77;;
70457;SDS011;57919;56.194;95.716;2024-01-15T14:35:56;3.50;;;1.90;;
70457;SDS011;57919;56.194;95.716;2024-01-15T14:45:57;7.03;;;2.08;;
70457;SDS011;57919;56.194;95.716;2024-01-15T14:55:59;7.95;;;3.08;;
70457;SDS011;57919;56.194;95.716;2024-01-15T15:06:04;20.63;;;4.57;;
70457;SDS011;57919;56.194;95.716;2024-01-15T15:16:06;6.23;;;2.03;;
70457;SDS011;57919;56.194;95.716;2024-01-15T15:26:09;10.38;;;4.03;;
70457;SDS011;57919;56.194;95.716;2024-01-15T15:36:11;5.93;;;2.50;;
70457;SDS011;57919;56.194;95.716;2024-01-15T15:46:13;8.47;;;2.73;;
70457;SDS011;57919;56.194;95.716;2024-01-15T15:56:14;3.42;;;1.25;;
70457;SDS011;57919;56.194;95.716;2024-01-15T16:06:17;14.73;;;8.23;;
70457;SDS011;57919;56.194;95.716;2024-01-15T16:16:18;25.60;;;12.13;;
70457;SDS011;57919;56.194;95.716;2024-01-15T16:26:20;7.45;;;5.28;;
70457;SDS011;57919;56.194;95.716;2024-01-15T16:36:23;58.53;;;13.18;;
70457;SDS011;57919;56.194;95.716;2024-01-15T16:46:26;32.17;;;14.53;;
70457;SDS011;57919;56.194;95.716;2024-01-15T16:56:27;13.03;;;7.47;;
70457;SDS011;57919;56.194;95.716;2024-01-15T17:06:29;40.05;;;14.65;;
70457;SDS011;57919;56.194;95.716;2024-01-15T17:16:31;36.50;;;16.30;;
70457;SDS011;57919;56.194;95.716;2024-01-15T17:26:34;24.33;;;11.63;;
70457;SDS011;57919;56.194;95.716;2024-01-15T17:36:36;9.68;;;6.50;;
70457;SDS011;57919;56.194;95.716;2024-01-15T17:46:38;9.07;;;6.13;;
70457;SDS011;57919;56.194;95.716;2024-01-15T17:56:40;19.87;;;11.00;;
70457;SDS011;57919;56.194;95.716;2024-01-15T18:06:42;43.33;;;18.77;;
70457;SDS011;57919;56.194;95.716;2024-01-15T18:16:44;28.58;;;14.45;;
70457;SDS011;57919;56.194;95.716;2024-01-15T18:26:52;10.67;;;7.27;;
70457;SDS011;57919;56.194;95.716;2024-01-15T18:36:55;9.73;;;6.73;;
70457;SDS011;57919;56.194;95.716;2024-01-15T18:46:56;12.18;;;3.90;;
70457;SDS011;57919;56.194;95.716;2024-01-15T18:56:58;19.70;;;4.50;;
70457;SDS011;57919;56.194;95.716;2024-01-15T19:07:01;13.50;;;5.63;;
70457;SDS011;57919;56.194;95.716;2024-01-15T19:17:02;31.33;;;13.30;;
70457;SDS011;57919;56.194;95.716;2024-01-15T19:27:05;14.10;;;9.07;;
70457;SDS011;57919;56.194;95.716;2024-01-15T19:37:08;14.97;;;6.47;;
70457;SDS011;57919;56.194;95.716;2024-01-15T19:47:09;8.80;;;5.25;;
70457;SDS011;57919;56.194;95.716;2024-01-15T19:57:12;21.02;;;10.82;;
70457;SDS011;57919;56.194;95.716;2024-01-15T20:07:15;9.67;;;5.63;;
70457;SDS011;57919;56.194;95.716;2024-01-15T20:17:17;8.60;;;4.97;;
70457;SDS011;57919;56.194;95.716;2024-01-15T20:27:18;26.95;;;9.65;;
70457;SDS011;57919;56.194;95.716;2024-01-15T20:37:21;12.63;;;5.47;;
70457;SDS011;57919;56.194;95.716;2024-01-15T20:47:23;8.13;;;5.27;;
70457;SDS011;57919;56.194;95.716;2024-01-15T20:57:24;19.30;;;3.67;;
70457;SDS011;57919;56.194;95.716;2024-01-15T21:07:27;2.20;;;1.27;;
70457;SDS011;57919;56.194;95.716;2024-01-15T21:17:29;1.60;;;0.97;;
70457;SDS011;57919;56.194;95.716;2024-01-15T21:27:33;16.05;;;10.57;;
70457;SDS011;57919;56.194;95.716;2024-01-15T21:37:34;27.67;;;9.95;;
70457;SDS011;57919;56.194;95.716;2024-01-15T21:47:36;2.03;;;1.23;;
70457;SDS011;57919;56.194;95.716;2024-01-15T21:57:38;8.93;;;5.13;;
70457;SDS011;57919;56.194;95.716;2024-01-15T22:07:41;19.90;;;9.00;;
70457;SDS011;57919;56.194;95.716;2024-01-15T22:17:44;25.27;;;9.77;;
70457;SDS011;57919;56.194;95.716;2024-01-15T22:27:46;28.73;;;8.30;;
70457;SDS011;57919;56.194;95.716;2024-01-15T22:37:48;34.28;;;12.48;;
70457;SDS011;57919;56.194;95.716;2024-01-15T22:47:50;80.23;;;27.97;;
70457;SDS011;57919;56.194;95.716;2024-01-15T22:57:52;53.03;;;24.23;;
70457;SDS011;57919;56.194;95.716;2024-01-15T23:07:54;45.25;;;22.33;;
70457;SDS011;57919;56.194;95.716;2024-01-15T23:17:56;50.85;;;22.90;;
70457;SDS011;57919;56.194;95.716;2024-01-15T23:27:59;29.70;;;16.17;;
70457;SDS011;57919;56.194;95.716;2024-01-15T23:38:02;28.10;;;15.67;;
70457;SDS011;57919;56.194;95.716;2024-01-15T23:48:04;36.50;;;19.55;;
70457;SDS011;57919;56.194;95.716;2024-01-15T23:58:06;64.97;;;21.67;;
